< < Back
Terminal Aerodrome Forecast


Current Version              Previous Versions:   1  2  3  4  5  6  7  8  9  

Terminal Aerodrome Forecast

770
FTUS42 KGSP 222300
TAFCLT
TAF
KCLT 222333Z 2300/2324 04003KT P6SM SCT200 BKN250
     FM230600 03007KT P6SM SCT200 BKN250
     FM231400 05009G14KT P6SM BKN045 BKN250
     FM232000 05007KT P6SM SCT035=

Latest METAR

982
SAUS70 KWBC 231200 RRA
MTRCLT
METAR KCLT 231152Z 03008KT 10SM SCT075 BKN180 OVC250 16/09 A3025 RMK AO2
SLP238 T01560094 10172 20150 51023


USA.gov is the U.S. government's official web portal to all federal, state and local government web resources and services.